createdAt,value
2023-03-11T00:02:15.364Z,45.65
2023-03-11T00:04:41.022Z,45.75
2023-03-11T00:07:08.735Z,45.59
2023-03-11T00:09:34.664Z,45.70
2023-03-11T00:12:00.924Z,45.58
2023-03-11T00:14:26.586Z,45.50
2023-03-11T00:16:52.262Z,45.53
2023-03-11T00:19:17.927Z,45.81
2023-03-11T00:21:43.751Z,45.78
2023-03-11T00:24:09.461Z,45.38
2023-03-11T00:26:35.098Z,45.50
2023-03-11T00:29:00.764Z,45.72
2023-03-11T00:31:26.451Z,45.59
2023-03-11T00:33:52.770Z,45.63
2023-03-11T00:36:33.454Z,45.59
2023-03-11T00:39:01.390Z,45.63
2023-03-11T00:41:27.717Z,45.86
2023-03-11T00:43:53.735Z,45.54
2023-03-11T00:46:19.444Z,45.61
2023-03-11T00:48:45.140Z,45.76
2023-03-11T00:51:13.522Z,45.72
2023-03-11T00:53:39.142Z,45.71
2023-03-11T00:56:07.286Z,45.69
2023-03-11T00:58:34.918Z,45.65
2023-03-11T01:01:06.032Z,45.68
2023-03-11T01:03:31.691Z,45.66
2023-03-11T01:05:57.326Z,45.47
2023-03-11T01:08:22.981Z,45.65
2023-03-11T01:10:48.625Z,45.82
2023-03-11T01:13:14.436Z,45.62
2023-03-11T01:15:40.242Z,45.54
2023-03-11T01:18:06.301Z,45.74
2023-03-11T01:20:32.140Z,45.49
2023-03-11T01:22:57.778Z,45.67
2023-03-11T01:25:24.015Z,45.86
2023-03-11T01:27:49.712Z,45.53
2023-03-11T01:30:20.590Z,45.55
2023-03-11T01:32:46.327Z,45.72
2023-03-11T01:35:13.749Z,45.67
2023-03-11T01:37:39.556Z,45.70
2023-03-11T01:40:07.949Z,45.53
2023-03-11T01:42:33.604Z,45.83
2023-03-11T01:44:59.238Z,45.71
2023-03-11T01:47:36.460Z,45.49
2023-03-11T01:50:04.953Z,45.69
2023-03-11T01:52:30.513Z,45.45
2023-03-11T01:54:56.168Z,45.73
2023-03-11T01:57:21.838Z,45.80
2023-03-11T01:59:51.483Z,45.64
2023-03-11T02:02:21.134Z,45.69
2023-03-11T02:04:47.058Z,45.98
2023-03-11T02:07:13.609Z,45.86
2023-03-11T02:09:39.261Z,45.58
2023-03-11T02:12:05.967Z,45.54
2023-03-11T02:14:32.148Z,45.52
2023-03-11T02:16:58.588Z,45.62
2023-03-11T02:19:40.775Z,45.56
2023-03-11T02:22:07.013Z,45.81
2023-03-11T02:24:58.088Z,45.70
2023-03-11T02:27:26.184Z,45.86
2023-03-11T02:29:53.263Z,45.65
2023-03-11T02:32:19.080Z,45.79
2023-03-11T02:34:44.765Z,45.82
2023-03-11T02:37:12.808Z,45.88
2023-03-11T02:39:41.972Z,45.62
2023-03-11T02:42:12.541Z,45.85
2023-03-11T02:44:40.053Z,45.48
2023-03-11T02:47:06.012Z,45.62
2023-03-11T02:49:31.961Z,45.73
2023-03-11T02:51:57.629Z,45.70
2023-03-11T02:54:23.336Z,45.81
2023-03-11T02:56:48.975Z,45.79
2023-03-11T02:59:14.644Z,45.73
2023-03-11T03:01:40.344Z,45.96
2023-03-11T03:04:06.142Z,45.63
2023-03-11T03:06:31.824Z,45.50
2023-03-11T03:08:57.504Z,45.45
2023-03-11T03:11:23.156Z,45.43
2023-03-11T03:13:48.840Z,45.46
2023-03-11T03:16:14.513Z,45.70
2023-03-11T03:18:40.242Z,45.44
2023-03-11T03:21:05.891Z,45.62
2023-03-11T03:23:34.408Z,45.58
2023-03-11T03:26:00.393Z,45.71
2023-03-11T03:28:26.064Z,45.58
2023-03-11T03:30:51.711Z,45.48
2023-03-11T03:33:17.868Z,45.60
2023-03-11T03:35:44.460Z,45.40
2023-03-11T03:38:10.422Z,45.44
2023-03-11T03:40:36.611Z,45.53
2023-03-11T03:43:02.515Z,45.50
2023-03-11T03:45:28.209Z,45.46
2023-03-11T03:47:53.861Z,45.66
2023-03-11T03:50:19.582Z,45.61
2023-03-11T03:52:45.334Z,45.47
2023-03-11T03:55:11.076Z,45.75
2023-03-11T03:57:36.759Z,45.77
2023-03-11T04:00:03.815Z,45.70
2023-03-11T04:02:30.354Z,45.38
2023-03-11T04:04:56.382Z,45.59
2023-03-11T04:07:22.192Z,45.65
2023-03-11T04:09:47.838Z,45.58
2023-03-11T04:12:14.737Z,45.69
2023-03-11T04:14:41.274Z,45.45
2023-03-11T04:17:09.706Z,45.51
2023-03-11T04:19:35.317Z,45.53
2023-03-11T04:22:00.984Z,45.46
2023-03-11T04:24:26.634Z,45.58
2023-03-11T04:26:52.278Z,45.35
2023-03-11T04:29:17.918Z,45.75
2023-03-11T04:31:43.566Z,45.45
2023-03-11T04:34:09.293Z,45.64
2023-03-11T04:36:34.967Z,45.39
2023-03-11T04:39:00.633Z,45.70
2023-03-11T04:41:26.415Z,45.64
2023-03-11T04:43:52.057Z,45.66
2023-03-11T04:46:17.748Z,45.63
2023-03-11T04:48:43.398Z,45.29
2023-03-11T04:51:09.090Z,45.57
2023-03-11T04:53:34.815Z,45.61
2023-03-11T04:56:00.450Z,45.35
2023-03-11T04:58:26.090Z,45.70
2023-03-11T05:00:52.028Z,45.34
2023-03-11T05:03:17.997Z,45.49
2023-03-11T05:05:44.068Z,45.49
2023-03-11T05:08:09.776Z,45.46
2023-03-11T05:10:35.941Z,45.64
2023-03-11T05:13:01.942Z,45.34
2023-03-11T05:15:29.917Z,45.48
2023-03-11T05:17:55.586Z,45.53
2023-03-11T05:20:21.238Z,45.47
2023-03-11T05:22:46.926Z,45.34
2023-03-11T05:25:12.597Z,45.36
2023-03-11T05:27:38.330Z,45.44
2023-03-11T05:30:04.542Z,45.48
2023-03-11T05:32:30.219Z,45.54
2023-03-11T05:34:55.872Z,45.53
2023-03-11T05:37:21.521Z,45.43
2023-03-11T05:39:47.180Z,45.45
2023-03-11T05:42:12.834Z,45.38
2023-03-11T05:44:38.622Z,45.44
2023-03-11T05:47:04.369Z,45.44
2023-03-11T05:49:30.039Z,45.27
2023-03-11T05:51:58.380Z,45.50
2023-03-11T05:54:24.358Z,45.36
2023-03-11T05:56:50.004Z,45.41
2023-03-11T05:59:16.966Z,45.04
2023-03-11T06:01:43.394Z,45.38
2023-03-11T06:04:09.331Z,45.28
2023-03-11T06:06:35.049Z,45.47
2023-03-11T06:09:01.123Z,45.28
2023-03-11T06:11:26.824Z,45.49
2023-03-11T06:13:54.032Z,45.45
2023-03-11T06:16:20.833Z,45.23
2023-03-11T06:18:46.516Z,45.53
2023-03-11T06:21:20.707Z,45.39
2023-03-11T06:23:46.447Z,45.27
2023-03-11T06:26:14.988Z,45.42
2023-03-11T06:28:42.053Z,45.48
2023-03-11T06:31:11.198Z,45.49
2023-03-11T06:33:36.882Z,45.61
2023-03-11T06:36:03.928Z,45.33
2023-03-11T06:38:29.940Z,45.34
2023-03-11T06:41:03.916Z,45.48
2023-03-11T06:43:30.629Z,45.43
2023-03-11T06:45:57.012Z,45.36
2023-03-11T06:48:23.151Z,45.44
2023-03-11T06:50:57.317Z,45.57
2023-03-11T06:53:23.208Z,45.26
2023-03-11T06:56:09.755Z,45.49
2023-03-11T06:58:37.027Z,45.38
2023-03-11T07:01:12.804Z,45.29
2023-03-11T07:03:38.928Z,45.43
2023-03-11T07:06:06.705Z,45.59
2023-03-11T07:08:32.574Z,45.21
2023-03-11T07:11:04.305Z,45.54
2023-03-11T07:13:30.162Z,45.18
2023-03-11T07:16:00.588Z,45.30
2023-03-11T07:18:26.238Z,45.31
2023-03-11T07:20:51.886Z,45.30
2023-03-11T07:23:18.179Z,45.41
2023-03-11T07:25:46.226Z,45.33
2023-03-11T07:28:11.864Z,45.27
2023-03-11T07:30:38.821Z,45.18
2023-03-11T07:33:04.549Z,45.31
2023-03-11T07:35:30.352Z,45.17
2023-03-11T07:37:56.032Z,45.27
2023-03-11T07:40:21.733Z,45.20
2023-03-11T07:42:47.375Z,45.28
2023-03-11T07:45:13.166Z,45.48
2023-03-11T07:52:23.115Z,45.42
2023-03-11T07:54:48.747Z,45.36
2023-03-11T07:57:16.339Z,45.37
2023-03-11T07:59:42.103Z,45.41
2023-03-11T08:02:09.128Z,45.13
2023-03-11T08:04:34.774Z,45.33
2023-03-11T08:07:00.438Z,45.17
2023-03-11T08:09:26.217Z,45.13
2023-03-11T08:11:51.884Z,45.26
2023-03-11T08:14:17.595Z,45.38
2023-03-11T08:16:43.256Z,45.29
2023-03-11T08:19:11.574Z,45.54
2023-03-11T08:21:37.221Z,45.44
2023-03-11T08:24:05.559Z,45.33
2023-03-11T08:26:32.352Z,45.22
2023-03-11T08:28:58.457Z,45.30
2023-03-11T08:31:26.915Z,45.36
2023-03-11T08:33:53.761Z,45.35
2023-03-11T08:36:20.005Z,45.33
2023-03-11T08:38:45.995Z,45.18
2023-03-11T08:41:11.989Z,45.38
2023-03-11T08:43:37.803Z,45.20
2023-03-11T08:46:05.941Z,45.17
2023-03-11T08:48:32.154Z,45.35
2023-03-11T08:50:58.062Z,45.31
2023-03-11T08:53:23.844Z,45.48
2023-03-11T08:55:50.333Z,45.33
2023-03-11T08:58:16.086Z,45.31
2023-03-11T09:00:41.770Z,45.48
2023-03-11T09:03:07.468Z,45.19
2023-03-11T09:05:33.186Z,45.27
2023-03-11T09:07:58.894Z,45.20
2023-03-11T09:10:24.638Z,45.22
2023-03-11T09:12:50.299Z,45.51
2023-03-11T09:15:16.193Z,45.41
2023-03-11T09:17:41.846Z,45.28
2023-03-11T09:20:07.966Z,45.21
2023-03-11T09:22:33.624Z,45.35
2023-03-11T09:24:59.309Z,45.22
2023-03-11T09:27:24.980Z,45.29
2023-03-11T09:29:50.621Z,45.30
2023-03-11T09:32:16.328Z,45.27
2023-03-11T09:34:42.004Z,45.27
2023-03-11T09:37:07.961Z,45.19
2023-03-11T09:39:33.791Z,45.21
2023-03-11T09:42:20.311Z,45.33
2023-03-11T09:45:02.723Z,45.30
2023-03-11T09:47:57.655Z,45.46
2023-03-11T09:50:32.154Z,45.31
2023-03-11T09:53:22.164Z,45.42
2023-03-11T09:55:56.319Z,45.27
2023-03-11T10:01:26.833Z,45.27
2023-03-11T10:03:55.978Z,45.32
2023-03-11T10:06:25.021Z,45.36
2023-03-11T10:08:59.134Z,45.28
2023-03-11T10:11:56.582Z,45.20
2023-03-11T10:15:02.024Z,45.20
2023-03-11T10:17:57.908Z,45.34
2023-03-11T10:20:57.107Z,45.22
2023-03-11T10:23:56.559Z,45.27
2023-03-11T10:26:44.684Z,45.24
2023-03-11T10:29:28.629Z,45.23
2023-03-11T10:32:00.204Z,45.31
2023-03-11T10:34:33.439Z,45.27
2023-03-11T10:37:04.389Z,45.34
2023-03-11T10:39:31.955Z,45.50
2023-03-11T10:42:00.302Z,45.37
2023-03-11T10:44:33.487Z,45.11
2023-03-11T10:46:59.452Z,45.49
2023-03-11T10:49:25.559Z,45.37
2023-03-11T10:51:52.366Z,45.38
2023-03-11T10:54:36.831Z,45.10
2023-03-11T10:57:18.318Z,45.11
2023-03-11T10:59:49.740Z,45.22
2023-03-11T11:02:25.215Z,45.49
2023-03-11T11:08:13.300Z,45.09
2023-03-11T11:10:50.342Z,45.21
2023-03-11T11:13:18.747Z,45.46
2023-03-11T11:16:04.692Z,45.30
2023-03-11T11:18:36.469Z,45.39
2023-03-11T11:21:14.692Z,45.13
2023-03-11T11:23:42.697Z,45.31
2023-03-11T11:26:19.660Z,45.25
2023-03-11T11:28:45.612Z,45.14
2023-03-11T11:31:21.617Z,45.42
2023-03-11T11:33:50.642Z,45.29
2023-03-11T11:36:17.311Z,45.33
2023-03-11T11:38:43.565Z,45.32
2023-03-11T11:41:14.730Z,45.25
2023-03-11T11:43:47.962Z,45.15
2023-03-11T11:46:21.060Z,45.44
2023-03-11T11:49:10.328Z,45.28
2023-03-11T11:51:40.871Z,45.27
2023-03-11T11:54:27.522Z,45.00
2023-03-11T11:56:54.746Z,45.48
2023-03-11T11:59:22.224Z,45.22
2023-03-11T12:02:19.028Z,45.23
2023-03-11T12:04:49.615Z,45.42
2023-03-11T12:07:41.469Z,45.37
2023-03-11T12:10:23.584Z,45.36
2023-03-11T12:13:13.094Z,45.12
2023-03-11T12:15:42.155Z,45.20
2023-03-11T12:18:20.399Z,45.31
2023-03-11T12:20:52.620Z,45.30
2023-03-11T12:23:43.397Z,45.18
2023-03-11T12:26:26.337Z,45.15
2023-03-11T12:28:56.528Z,45.36
2023-03-11T12:31:23.948Z,45.08
2023-03-11T12:33:56.075Z,45.18
2023-03-11T12:36:39.021Z,45.04
2023-03-11T12:39:06.508Z,45.31
2023-03-11T12:41:38.043Z,45.13
2023-03-11T12:44:20.721Z,45.31
2023-03-11T12:49:34.300Z,45.10
2023-03-11T12:52:22.363Z,45.07
2023-03-11T12:55:23.840Z,45.26
2023-03-11T12:57:53.099Z,45.05
2023-03-11T13:00:42.196Z,45.31
2023-03-11T13:03:23.013Z,45.14
2023-03-11T13:06:28.484Z,45.12
2023-03-11T13:08:55.127Z,45.29
2023-03-11T13:11:36.268Z,45.29
2023-03-11T13:14:36.866Z,45.05
2023-03-11T13:17:23.776Z,45.10
2023-03-11T13:19:51.466Z,45.37
2023-03-11T13:22:42.454Z,45.45
2023-03-11T13:25:29.754Z,45.27
2023-03-11T13:28:07.195Z,45.30
2023-03-11T13:30:38.172Z,45.17
2023-03-11T13:33:26.154Z,45.04
2023-03-11T13:35:59.864Z,45.04
2023-03-11T13:38:46.679Z,45.20
2023-03-11T13:41:16.689Z,45.36
2023-03-11T13:43:44.434Z,45.18
2023-03-11T13:46:19.350Z,45.17
2023-03-11T13:48:47.508Z,45.14
2023-03-11T13:51:15.864Z,45.00
2023-03-11T13:53:47.078Z,45.01
2023-03-11T13:56:17.868Z,45.31
2023-03-11T13:58:43.511Z,45.37
2023-03-11T14:01:14.335Z,45.39
2023-03-11T14:03:41.432Z,45.33
2023-03-11T14:06:10.545Z,45.37
2023-03-11T14:08:37.675Z,45.22
2023-03-11T14:11:14.950Z,45.30
2023-03-11T14:13:42.695Z,45.10
2023-03-11T14:16:13.883Z,44.95
2023-03-11T14:18:41.724Z,45.17
2023-03-11T14:21:14.235Z,45.27
2023-03-11T14:23:42.764Z,45.02
2023-03-11T14:26:11.129Z,45.18
2023-03-11T14:28:37.919Z,45.20
2023-03-11T14:31:04.490Z,45.38
2023-03-11T14:33:30.163Z,45.03
2023-03-11T14:35:58.871Z,45.10
2023-03-11T14:38:28.094Z,45.16
2023-03-11T14:40:56.408Z,45.35
2023-03-11T14:43:22.064Z,45.37
2023-03-11T14:45:49.362Z,45.01
2023-03-11T14:48:37.215Z,45.03
2023-03-11T14:51:06.605Z,45.23
2023-03-11T14:53:36.214Z,45.17
2023-03-11T14:56:06.299Z,45.16
2023-03-11T15:01:14.325Z,45.03
2023-03-11T15:03:46.586Z,45.11
2023-03-11T15:06:15.768Z,45.28
2023-03-11T15:08:59.942Z,45.34
2023-03-11T15:11:27.640Z,45.16
2023-03-11T15:13:55.294Z,45.13
2023-03-11T15:16:25.248Z,45.18
2023-03-11T15:18:51.011Z,45.33
2023-03-11T15:21:19.120Z,45.04
2023-03-11T15:23:47.498Z,45.23
2023-03-11T15:26:19.429Z,45.04
2023-03-11T15:28:45.085Z,45.58
2023-03-11T15:36:55.470Z,45.35
2023-03-11T15:39:28.431Z,45.22
2023-03-11T15:44:40.093Z,45.21
2023-03-11T15:47:11.828Z,45.36
2023-03-11T15:49:37.500Z,45.28
2023-03-11T15:52:03.215Z,45.15
2023-03-11T15:54:28.984Z,45.45
2023-03-11T15:56:55.821Z,45.25
2023-03-11T15:59:21.625Z,45.31
2023-03-11T16:01:47.278Z,45.12
2023-03-11T16:04:15.203Z,45.17
2023-03-11T16:06:41.682Z,45.29
2023-03-11T16:09:07.813Z,45.47
2023-03-11T16:11:34.051Z,45.10
2023-03-11T16:13:59.915Z,45.29
2023-03-11T16:16:25.648Z,45.14
2023-03-11T16:18:51.528Z,45.38
2023-03-11T16:21:18.473Z,45.18
2023-03-11T16:23:51.661Z,45.27
2023-03-11T16:26:17.844Z,45.13
2023-03-11T16:28:43.491Z,45.10
2023-03-11T16:31:09.191Z,45.08
2023-03-11T16:33:35.874Z,45.17
2023-03-11T16:36:02.622Z,45.18
2023-03-11T16:38:29.566Z,45.09
2023-03-11T16:40:57.469Z,45.35
2023-03-11T16:43:23.283Z,45.01
2023-03-11T16:45:48.933Z,45.04
2023-03-11T16:48:14.581Z,45.20
2023-03-11T16:50:40.240Z,45.27
2023-03-11T16:53:05.901Z,45.42
2023-03-11T16:55:31.862Z,45.22
2023-03-11T16:57:57.786Z,45.05
2023-03-11T17:00:24.160Z,45.10
2023-03-11T17:02:50.481Z,45.38
2023-03-11T17:05:16.470Z,45.18
2023-03-11T17:07:42.378Z,45.08
2023-03-11T17:10:10.532Z,45.09
2023-03-11T17:12:36.252Z,45.18
2023-03-11T17:15:03.379Z,45.37
2023-03-11T17:17:29.041Z,45.58
2023-03-11T17:19:54.698Z,45.19
2023-03-11T17:22:20.344Z,45.23
2023-03-11T17:24:46.011Z,45.51
2023-03-11T17:27:11.800Z,45.17
2023-03-11T17:29:37.443Z,45.32
2023-03-11T17:32:05.242Z,45.19
2023-03-11T17:34:30.878Z,45.09
2023-03-11T17:36:56.894Z,45.38
2023-03-11T17:39:22.595Z,45.21
2023-03-11T17:41:48.378Z,45.23
2023-03-11T17:44:14.060Z,45.24
2023-03-11T17:46:40.272Z,45.42
2023-03-11T17:49:06.756Z,45.34
2023-03-11T17:51:33.323Z,45.33
2023-03-11T17:53:59.439Z,45.27
2023-03-11T17:56:25.158Z,45.25
2023-03-11T17:58:50.856Z,45.15
2023-03-11T18:01:19.661Z,45.18
2023-03-11T18:03:45.786Z,45.26
2023-03-11T18:06:12.100Z,45.37
2023-03-11T18:08:37.916Z,45.34
2023-03-11T18:11:06.887Z,45.24
2023-03-11T18:13:33.140Z,45.33
2023-03-11T18:16:00.994Z,45.33
2023-03-11T18:18:27.784Z,45.53
2023-03-11T18:20:53.501Z,45.43
2023-03-11T18:23:19.142Z,45.17
2023-03-11T18:25:49.678Z,45.04
2023-03-11T18:28:15.309Z,45.28
2023-03-11T18:30:40.960Z,45.34
2023-03-11T18:33:06.600Z,45.37
2023-03-11T18:35:32.269Z,45.27
2023-03-11T18:37:57.979Z,45.30
2023-03-11T18:40:23.643Z,45.24
2023-03-11T18:42:51.512Z,45.13
2023-03-11T18:45:17.214Z,45.24
2023-03-11T18:47:42.869Z,45.33
2023-03-11T18:50:09.173Z,45.19
2023-03-11T18:52:34.826Z,45.38
2023-03-11T18:55:00.493Z,45.13
2023-03-11T18:57:26.194Z,45.13
2023-03-11T18:59:51.833Z,45.25
2023-03-11T19:02:17.584Z,45.27
2023-03-11T19:04:43.287Z,45.17
2023-03-11T19:07:09.052Z,45.33
2023-03-11T19:09:34.754Z,45.35
2023-03-11T19:12:00.650Z,45.25
2023-03-11T19:14:26.459Z,45.24
2023-03-11T19:16:52.202Z,45.08
2023-03-11T19:19:18.052Z,45.16
2023-03-11T19:21:44.103Z,45.22
2023-03-11T19:24:09.849Z,45.21
2023-03-11T19:26:47.871Z,45.10
2023-03-11T19:29:14.156Z,45.13
2023-03-11T19:31:39.866Z,45.05
2023-03-11T19:34:05.510Z,45.15
2023-03-11T19:36:31.179Z,45.23
2023-03-11T19:38:56.813Z,45.18
2023-03-11T19:41:22.465Z,45.25
2023-03-11T19:43:48.245Z,45.15
2023-03-11T19:46:16.311Z,45.16
2023-03-11T19:48:42.038Z,45.26
2023-03-11T19:51:07.724Z,45.08
2023-03-11T19:53:34.901Z,45.20
2023-03-11T19:56:02.470Z,45.25
2023-03-11T19:58:30.455Z,45.22
2023-03-11T20:00:57.427Z,45.23
2023-03-11T20:03:23.112Z,45.52
2023-03-11T20:05:49.744Z,45.17
2023-03-11T20:08:17.917Z,45.35
2023-03-11T20:10:46.532Z,45.23
2023-03-11T20:13:13.321Z,45.03
2023-03-11T20:15:39.035Z,45.05
2023-03-11T20:18:05.388Z,45.19
2023-03-11T20:20:32.559Z,45.26
2023-03-11T20:22:58.694Z,45.00
2023-03-11T20:25:24.677Z,45.17
2023-03-11T20:27:51.144Z,45.18
2023-03-11T20:30:19.328Z,45.26
2023-03-11T20:32:46.081Z,45.22
2023-03-11T20:35:13.954Z,45.09
2023-03-11T20:37:39.748Z,45.23
2023-03-11T20:40:06.084Z,45.13
2023-03-11T20:42:31.930Z,45.14
2023-03-11T20:44:57.610Z,45.17
2023-03-11T20:47:23.438Z,45.31
2023-03-11T20:49:49.170Z,45.14
2023-03-11T20:52:14.890Z,45.26
2023-03-11T20:54:40.617Z,45.18
2023-03-11T20:57:06.925Z,45.26
2023-03-11T20:59:32.825Z,45.16
2023-03-11T21:01:58.836Z,45.16
2023-03-11T21:04:24.678Z,44.90
2023-03-11T21:06:51.984Z,45.24
2023-03-11T21:09:18.452Z,45.38
2023-03-11T21:11:44.717Z,45.20
2023-03-11T21:14:14.161Z,45.28
2023-03-11T21:16:40.124Z,45.18
2023-03-11T21:19:07.838Z,45.22
2023-03-11T21:21:33.650Z,45.06
2023-03-11T21:23:59.365Z,45.07
2023-03-11T21:26:25.292Z,45.26
2023-03-11T21:28:50.973Z,45.01
2023-03-11T21:31:18.913Z,45.12
2023-03-11T21:33:45.504Z,45.08
2023-03-11T21:36:12.565Z,45.17
2023-03-11T21:38:39.794Z,45.04
2023-03-11T21:41:09.439Z,45.24
2023-03-11T21:43:35.548Z,45.16
2023-03-11T21:46:01.632Z,45.21
2023-03-11T21:48:27.661Z,45.09
2023-03-11T21:50:53.319Z,45.23
2023-03-11T21:53:19.153Z,44.89
2023-03-11T21:55:46.274Z,45.25
2023-03-11T21:58:12.853Z,45.31
2023-03-11T22:00:38.813Z,44.95
2023-03-11T22:03:04.738Z,45.21
2023-03-11T22:05:30.555Z,45.21
2023-03-11T22:07:56.338Z,45.06
2023-03-11T22:10:22.197Z,45.08
2023-03-11T22:12:47.895Z,45.03
2023-03-11T22:15:13.546Z,45.14
2023-03-11T22:17:39.280Z,45.08
2023-03-11T22:20:05.672Z,45.14
2023-03-11T22:22:31.946Z,45.22
2023-03-11T22:24:57.609Z,45.41
2023-03-11T22:27:23.349Z,45.26
2023-03-11T22:29:49.967Z,45.10
2023-03-11T22:32:15.899Z,45.21
2023-03-11T22:34:41.955Z,45.06
2023-03-11T22:37:07.638Z,45.08
2023-03-11T22:39:33.355Z,45.07
2023-03-11T22:41:59.043Z,45.47
2023-03-11T22:44:24.731Z,45.03
2023-03-11T22:46:50.372Z,45.17
2023-03-11T22:49:16.027Z,45.04
2023-03-11T22:51:41.675Z,45.13
2023-03-11T22:54:07.442Z,45.02
2023-03-11T22:56:33.127Z,45.23
2023-03-11T22:58:58.766Z,45.02
2023-03-11T23:01:24.606Z,45.24
2023-03-11T23:03:50.373Z,44.93
2023-03-11T23:06:18.396Z,44.97
2023-03-11T23:08:44.957Z,44.96
2023-03-11T23:11:13.720Z,45.14
2023-03-11T23:13:40.349Z,45.02
2023-03-11T23:16:08.623Z,45.22
2023-03-11T23:18:34.589Z,44.91
2023-03-11T23:21:00.272Z,45.16
2023-03-11T23:23:25.956Z,44.87
2023-03-11T23:25:51.601Z,45.06
2023-03-11T23:28:17.257Z,44.88
2023-03-11T23:30:42.927Z,45.16
2023-03-11T23:33:08.612Z,45.07
2023-03-11T23:35:39.492Z,45.03
2023-03-11T23:38:05.193Z,45.15
2023-03-11T23:40:30.821Z,45.18
2023-03-11T23:42:56.517Z,45.10
2023-03-11T23:45:22.175Z,45.03
2023-03-11T23:47:47.883Z,45.17
2023-03-11T23:50:13.533Z,45.02
2023-03-11T23:52:39.246Z,45.04
2023-03-11T23:55:05.377Z,45.08
2023-03-11T23:57:34.033Z,45.09
2023-03-11T23:59:59.713Z,44.98
